createdAt,value
2018-10-03T00:01:20.669Z,92.15
2018-10-03T00:03:49.003Z,91.66
2018-10-03T00:06:17.289Z,92.62
2018-10-03T00:08:45.576Z,92.23
2018-10-03T00:11:13.860Z,93.24
2018-10-03T00:13:42.190Z,92.87
2018-10-03T00:16:10.471Z,92.44
2018-10-03T00:18:38.754Z,92.68
2018-10-03T00:21:07.042Z,93.71
2018-10-03T00:23:35.328Z,94.03
2018-10-03T00:26:03.615Z,92.17
2018-10-03T00:28:31.895Z,93.12
2018-10-03T00:31:00.195Z,92.20
2018-10-03T00:33:28.478Z,92.66
2018-10-03T00:35:56.763Z,91.48
2018-10-03T00:38:25.055Z,92.07
2018-10-03T00:40:53.339Z,92.03
2018-10-03T00:43:21.631Z,92.17
2018-10-03T00:45:49.926Z,97.04
2018-10-03T00:48:18.223Z,99.48
2018-10-03T00:50:46.508Z,100.00
2018-10-03T00:53:15.755Z,100.00
2018-10-03T00:55:44.047Z,100.00
2018-10-03T00:58:12.335Z,100.00
2018-10-03T01:00:40.635Z,100.00
2018-10-03T01:03:08.923Z,100.00
2018-10-03T01:05:37.219Z,100.00
2018-10-03T01:08:05.521Z,99.62
2018-10-03T01:10:33.815Z,97.10
2018-10-03T01:13:02.112Z,100.00
2018-10-03T01:15:30.395Z,98.68
2018-10-03T01:17:58.691Z,97.73
2018-10-03T01:20:26.991Z,98.35
2018-10-03T01:22:55.276Z,96.92
2018-10-03T01:25:23.551Z,98.11
2018-10-03T01:27:51.843Z,98.55
2018-10-03T01:30:20.128Z,97.35
2018-10-03T01:32:48.410Z,98.12
2018-10-03T01:35:16.692Z,97.20
2018-10-03T01:37:44.967Z,97.07
2018-10-03T01:40:13.260Z,97.80
2018-10-03T01:42:41.540Z,96.05
2018-10-03T01:45:09.838Z,95.78
2018-10-03T01:47:38.127Z,95.61
2018-10-03T01:50:06.424Z,98.51
2018-10-03T01:52:34.704Z,95.99
2018-10-03T01:55:02.980Z,97.11
2018-10-03T01:57:31.271Z,97.30
2018-10-03T02:00:00.252Z,98.70
2018-10-03T02:02:28.539Z,96.81
2018-10-03T02:04:56.819Z,98.04
2018-10-03T02:07:25.119Z,99.98
2018-10-03T02:09:53.399Z,99.15
2018-10-03T02:12:21.679Z,98.10
2018-10-03T02:14:49.988Z,99.48
2018-10-03T02:17:18.248Z,98.25
2018-10-03T02:19:46.538Z,98.15
2018-10-03T02:22:14.815Z,98.14
2018-10-03T02:24:43.094Z,98.19
2018-10-03T02:27:11.386Z,99.13
2018-10-03T02:29:39.694Z,100.00
2018-10-03T02:32:07.979Z,98.75
2018-10-03T02:34:36.267Z,100.00
2018-10-03T02:37:04.563Z,100.00
2018-10-03T02:39:32.854Z,98.94
2018-10-03T02:42:01.135Z,99.37
2018-10-03T02:44:29.418Z,98.51
2018-10-03T02:46:57.703Z,98.59
2018-10-03T02:49:26.001Z,98.26
2018-10-03T02:51:54.291Z,98.95
2018-10-03T02:54:22.579Z,96.60
2018-10-03T02:56:50.859Z,97.71
2018-10-03T02:59:19.147Z,97.20
2018-10-03T03:01:47.447Z,100.00
2018-10-03T03:04:15.735Z,100.00
2018-10-03T03:06:44.031Z,100.00
2018-10-03T03:09:12.323Z,99.05
2018-10-03T03:11:40.611Z,100.00
2018-10-03T03:14:08.895Z,100.00
2018-10-03T03:16:37.192Z,100.00
2018-10-03T03:19:05.487Z,100.00
2018-10-03T03:21:33.781Z,100.00
2018-10-03T03:24:02.070Z,100.00
2018-10-03T03:26:30.368Z,100.00
2018-10-03T03:28:58.659Z,100.00
2018-10-03T03:31:26.947Z,100.00
2018-10-03T03:33:55.244Z,100.00
2018-10-03T03:36:23.532Z,100.00
2018-10-03T03:38:51.831Z,100.00
2018-10-03T03:41:20.124Z,100.00
2018-10-03T03:43:48.419Z,100.00
2018-10-03T03:46:16.707Z,100.00
2018-10-03T03:48:45.006Z,100.00
2018-10-03T03:51:13.310Z,100.00
2018-10-03T03:53:41.594Z,100.00
2018-10-03T03:56:09.930Z,100.00
2018-10-03T03:58:38.192Z,100.00
2018-10-03T04:01:06.488Z,100.00
2018-10-03T04:03:34.784Z,100.00
2018-10-03T04:06:03.079Z,100.00
2018-10-03T04:08:31.379Z,100.00
2018-10-03T04:10:59.679Z,100.00
2018-10-03T04:13:27.979Z,100.00
2018-10-03T04:15:56.274Z,100.00
2018-10-03T04:18:24.568Z,100.00
2018-10-03T04:20:52.857Z,100.00
2018-10-03T04:23:21.163Z,100.00
2018-10-03T04:25:49.483Z,100.00
2018-10-03T04:28:17.775Z,100.00
2018-10-03T04:30:46.060Z,100.00
2018-10-03T04:33:14.359Z,100.00
2018-10-03T04:35:42.691Z,100.00
2018-10-03T04:38:10.946Z,100.00
2018-10-03T04:40:39.233Z,100.00
2018-10-03T04:43:07.522Z,100.00
2018-10-03T04:45:35.807Z,100.00
2018-10-03T04:48:04.103Z,100.00
2018-10-03T04:50:32.387Z,100.00
2018-10-03T04:53:01.611Z,100.00
2018-10-03T04:55:29.895Z,100.00
2018-10-03T04:57:58.189Z,100.00
2018-10-03T05:00:26.463Z,100.00
2018-10-03T05:02:54.769Z,100.00
2018-10-03T05:05:23.047Z,100.00
2018-10-03T05:07:51.351Z,100.00
2018-10-03T05:10:19.647Z,100.00
2018-10-03T05:12:47.947Z,100.00
2018-10-03T05:15:16.236Z,100.00
2018-10-03T05:17:44.539Z,100.00
2018-10-03T05:20:12.832Z,100.00
2018-10-03T05:22:41.122Z,100.00
2018-10-03T05:25:09.404Z,100.00
2018-10-03T05:27:37.702Z,100.00
2018-10-03T05:30:05.995Z,100.00
2018-10-03T05:32:34.288Z,100.00
2018-10-03T05:35:02.566Z,100.00
2018-10-03T05:37:30.867Z,100.00
2018-10-03T05:39:59.157Z,100.00
2018-10-03T05:42:27.447Z,100.00
2018-10-03T05:44:55.726Z,100.00
2018-10-03T05:47:24.019Z,100.00
2018-10-03T05:49:52.295Z,100.00
2018-10-03T05:52:20.582Z,100.00
2018-10-03T05:54:48.938Z,100.00
2018-10-03T05:57:17.162Z,100.00
2018-10-03T05:59:45.442Z,100.00
2018-10-03T06:02:13.737Z,100.00
2018-10-03T06:04:42.017Z,100.00
2018-10-03T06:07:10.303Z,100.00
2018-10-03T06:09:38.587Z,100.00
2018-10-03T06:12:06.936Z,100.00
2018-10-03T06:14:35.271Z,100.00
2018-10-03T06:17:03.550Z,100.00
2018-10-03T06:19:31.843Z,100.00
2018-10-03T06:22:00.141Z,100.00
2018-10-03T06:24:28.419Z,100.00
2018-10-03T06:26:56.719Z,100.00
2018-10-03T06:29:24.999Z,100.00
2018-10-03T06:31:53.301Z,100.00
2018-10-03T06:34:21.575Z,100.00
2018-10-03T06:36:49.866Z,100.00
2018-10-03T06:39:18.159Z,100.00
2018-10-03T06:41:46.455Z,100.00
2018-10-03T06:44:14.752Z,100.00
2018-10-03T06:46:43.032Z,100.00
2018-10-03T06:49:11.334Z,100.00
2018-10-03T06:51:39.616Z,100.00
2018-10-03T06:54:07.900Z,100.00
2018-10-03T06:56:36.206Z,100.00
2018-10-03T06:59:04.482Z,100.00
2018-10-03T07:01:32.759Z,100.00
2018-10-03T07:04:01.055Z,100.00
2018-10-03T07:06:29.359Z,100.00
2018-10-03T07:08:57.659Z,100.00
2018-10-03T07:11:25.943Z,100.00
2018-10-03T07:13:54.235Z,100.00
2018-10-03T07:16:22.517Z,100.00
2018-10-03T07:18:50.795Z,100.00
2018-10-03T07:21:19.083Z,100.00
2018-10-03T07:23:47.370Z,100.00
2018-10-03T07:26:15.727Z,100.00
2018-10-03T07:28:43.954Z,100.00
2018-10-03T07:31:12.239Z,100.00
2018-10-03T07:33:40.520Z,100.00
2018-10-03T07:36:08.815Z,100.00
2018-10-03T07:38:37.099Z,100.00
2018-10-03T07:41:05.375Z,100.00
2018-10-03T07:43:33.669Z,100.00
2018-10-03T07:46:01.947Z,100.00
2018-10-03T07:48:30.251Z,100.00
2018-10-03T07:50:58.538Z,100.00
2018-10-03T07:53:26.884Z,100.00
2018-10-03T07:55:55.127Z,100.00
2018-10-03T07:58:23.411Z,100.00
2018-10-03T08:00:51.711Z,100.00
2018-10-03T08:03:19.999Z,100.00
2018-10-03T08:05:48.295Z,100.00
2018-10-03T08:08:16.575Z,100.00
2018-10-03T08:10:44.857Z,100.00
2018-10-03T08:13:13.147Z,100.00
2018-10-03T08:15:41.527Z,100.00
2018-10-03T08:18:09.778Z,100.00
2018-10-03T08:20:38.087Z,100.00
2018-10-03T08:23:06.362Z,100.00
2018-10-03T08:25:34.643Z,100.00
2018-10-03T08:28:02.939Z,100.00
2018-10-03T08:30:31.223Z,100.00
2018-10-03T08:32:59.620Z,100.00
2018-10-03T08:35:27.806Z,100.00
2018-10-03T08:37:56.089Z,100.00
2018-10-03T08:40:24.367Z,100.00
2018-10-03T08:42:52.659Z,100.00
2018-10-03T08:45:20.968Z,100.00
2018-10-03T08:47:49.222Z,100.00
2018-10-03T08:50:17.514Z,100.00
2018-10-03T08:52:45.807Z,100.00
2018-10-03T08:55:14.087Z,100.00
2018-10-03T08:57:42.376Z,100.00
2018-10-03T09:00:10.667Z,100.00
2018-10-03T09:02:38.963Z,100.00
2018-10-03T09:05:07.247Z,100.00
2018-10-03T09:07:36.386Z,100.00
2018-10-03T09:10:04.679Z,100.00
2018-10-03T09:12:32.975Z,100.00
2018-10-03T09:15:01.256Z,100.00
2018-10-03T09:17:29.551Z,100.00
2018-10-03T09:19:57.839Z,100.00
2018-10-03T09:22:26.127Z,100.00
2018-10-03T09:24:54.406Z,100.00
2018-10-03T09:27:22.703Z,100.00
2018-10-03T09:29:50.991Z,100.00
2018-10-03T09:32:19.279Z,100.00
2018-10-03T09:34:47.569Z,100.00
2018-10-03T09:37:15.858Z,100.00
2018-10-03T09:39:44.155Z,100.00
2018-10-03T09:42:12.448Z,100.00
2018-10-03T09:44:40.822Z,99.78
2018-10-03T09:47:09.033Z,98.33
2018-10-03T09:49:37.319Z,98.83
2018-10-03T09:52:05.611Z,100.00
2018-10-03T09:54:33.904Z,100.00
2018-10-03T09:57:02.204Z,100.00
2018-10-03T09:59:30.486Z,98.61
2018-10-03T10:01:58.771Z,96.09
2018-10-03T10:04:27.063Z,100.00
2018-10-03T10:06:55.359Z,96.81
2018-10-03T10:09:23.643Z,95.18
2018-10-03T10:11:51.941Z,100.00
2018-10-03T10:14:20.223Z,96.94
2018-10-03T10:16:48.514Z,91.78
2018-10-03T10:19:16.799Z,92.92
2018-10-03T10:21:45.095Z,91.85
2018-10-03T10:24:13.384Z,95.25
2018-10-03T10:26:41.671Z,90.21
2018-10-03T10:29:09.950Z,88.52
2018-10-03T10:31:38.247Z,92.57
2018-10-03T10:34:06.520Z,88.90
2018-10-03T10:36:34.819Z,85.67
2018-10-03T10:39:03.095Z,86.67
2018-10-03T10:41:31.516Z,85.71
2018-10-03T10:43:59.683Z,80.52
2018-10-03T10:46:27.983Z,82.18
2018-10-03T10:48:56.273Z,84.23
2018-10-03T10:51:24.568Z,85.42
2018-10-03T10:53:52.839Z,84.30
2018-10-03T10:56:21.135Z,85.13
2018-10-03T10:58:49.411Z,79.66
2018-10-03T11:01:17.735Z,80.22
2018-10-03T11:03:46.030Z,79.00
2018-10-03T11:06:14.412Z,80.45
2018-10-03T11:08:42.683Z,78.51
2018-10-03T11:11:10.980Z,80.31
2018-10-03T11:13:39.259Z,75.54
2018-10-03T11:16:07.547Z,78.33
2018-10-03T11:18:35.827Z,79.84
2018-10-03T11:21:04.123Z,78.37
2018-10-03T11:23:32.441Z,77.99
2018-10-03T11:26:00.715Z,78.22
2018-10-03T11:28:28.998Z,80.42
2018-10-03T11:30:57.291Z,77.91
2018-10-03T11:33:25.579Z,71.00
2018-10-03T11:35:53.876Z,70.96
2018-10-03T11:38:22.324Z,71.62
2018-10-03T11:40:50.467Z,71.53
2018-10-03T11:43:18.754Z,73.37
2018-10-03T11:45:47.047Z,71.95
2018-10-03T11:48:15.329Z,72.63
2018-10-03T11:50:43.669Z,71.50
2018-10-03T11:53:11.887Z,69.20
2018-10-03T11:55:40.179Z,69.46
2018-10-03T11:58:08.464Z,69.81
2018-10-03T12:00:36.739Z,72.81
2018-10-03T12:03:05.104Z,72.29
2018-10-03T12:05:33.315Z,69.70
2018-10-03T12:08:01.591Z,70.69
2018-10-03T12:10:29.883Z,70.80
2018-10-03T12:12:58.163Z,71.82
2018-10-03T12:15:26.462Z,71.55
2018-10-03T12:17:54.743Z,71.38
2018-10-03T12:20:23.043Z,73.49
2018-10-03T12:22:51.318Z,75.65
2018-10-03T12:25:19.650Z,76.68
2018-10-03T12:27:47.942Z,77.23
2018-10-03T12:30:17.010Z,79.34
2018-10-03T12:32:45.312Z,80.74
2018-10-03T12:35:13.595Z,76.85
2018-10-03T12:37:41.880Z,80.16
2018-10-03T12:40:10.175Z,79.22
2018-10-03T12:42:38.475Z,83.56
2018-10-03T12:45:06.774Z,80.57
2018-10-03T12:47:35.047Z,79.36
2018-10-03T12:50:03.336Z,79.07
2018-10-03T12:52:31.622Z,79.17
2018-10-03T12:54:59.915Z,81.98
2018-10-03T12:57:28.210Z,79.26
2018-10-03T12:59:56.507Z,80.32
2018-10-03T13:02:24.802Z,80.41
2018-10-03T13:04:53.108Z,81.50
2018-10-03T13:07:21.386Z,81.01
2018-10-03T13:09:49.691Z,80.72
2018-10-03T13:12:17.991Z,80.67
2018-10-03T13:14:46.279Z,81.49
2018-10-03T13:17:14.578Z,82.78
2018-10-03T13:19:43.003Z,80.93
2018-10-03T13:22:11.283Z,81.47
2018-10-03T13:24:39.591Z,82.21
2018-10-03T13:27:07.885Z,84.54
2018-10-03T13:29:36.164Z,84.96
2018-10-03T13:32:04.463Z,84.29
2018-10-03T13:34:33.063Z,83.07
2018-10-03T13:37:01.367Z,85.85
2018-10-03T13:39:29.665Z,83.92
2018-10-03T13:41:57.959Z,85.07
2018-10-03T13:44:26.255Z,82.20
2018-10-03T13:46:54.531Z,80.84
2018-10-03T13:49:22.815Z,80.11
2018-10-03T13:51:51.093Z,81.94
2018-10-03T13:54:19.375Z,77.99
2018-10-03T13:56:47.652Z,78.85
2018-10-03T13:59:15.942Z,80.63
2018-10-03T14:01:44.527Z,78.79
2018-10-03T14:04:12.834Z,79.32
2018-10-03T14:06:41.131Z,79.75
2018-10-03T14:09:09.402Z,79.13
2018-10-03T14:11:37.697Z,78.23
2018-10-03T14:14:05.979Z,80.28
2018-10-03T14:16:34.284Z,80.43
2018-10-03T14:19:02.571Z,82.15
2018-10-03T14:21:30.854Z,80.80
2018-10-03T14:23:59.167Z,81.35
2018-10-03T14:26:28.432Z,81.21
2018-10-03T14:28:56.741Z,80.83
2018-10-03T14:31:25.038Z,81.98
2018-10-03T14:33:53.335Z,84.76
2018-10-03T14:36:21.627Z,81.96
2018-10-03T14:38:49.923Z,81.77
2018-10-03T14:41:18.223Z,82.38
2018-10-03T14:43:46.524Z,84.09
2018-10-03T14:46:14.832Z,86.42
2018-10-03T14:48:43.123Z,83.24
2018-10-03T14:51:11.431Z,83.69
2018-10-03T14:53:39.723Z,83.67
2018-10-03T14:56:08.018Z,84.02
2018-10-03T14:58:36.433Z,83.00
2018-10-03T15:01:04.604Z,80.63
2018-10-03T15:03:32.891Z,81.61
2018-10-03T15:06:01.184Z,82.08
2018-10-03T15:08:29.477Z,81.59
2018-10-03T15:10:57.763Z,81.67
2018-10-03T15:13:26.064Z,83.83
2018-10-03T15:15:54.362Z,80.53
2018-10-03T15:18:22.720Z,81.94
2018-10-03T15:20:50.939Z,82.96
2018-10-03T15:23:19.231Z,82.11
2018-10-03T15:25:47.527Z,83.57
2018-10-03T15:28:15.832Z,84.34
2018-10-03T15:30:44.131Z,85.87
2018-10-03T15:33:12.408Z,82.79
2018-10-03T15:35:40.699Z,85.54
2018-10-03T15:38:08.992Z,84.92
2018-10-03T15:40:37.283Z,88.98
2018-10-03T15:43:05.559Z,88.90
2018-10-03T15:45:33.842Z,85.29
2018-10-03T15:48:02.126Z,88.45
2018-10-03T15:50:30.403Z,87.42
2018-10-03T15:52:58.691Z,89.37
2018-10-03T15:55:26.983Z,90.56
2018-10-03T15:57:55.262Z,90.10
2018-10-03T16:00:23.558Z,89.21
2018-10-03T16:02:51.851Z,90.15
2018-10-03T16:05:20.143Z,90.20
2018-10-03T16:07:48.427Z,88.81
2018-10-03T16:10:16.719Z,89.59
2018-10-03T16:12:44.999Z,88.29
2018-10-03T16:15:13.284Z,91.72
2018-10-03T16:17:41.585Z,93.14
2018-10-03T16:20:09.864Z,95.04
2018-10-03T16:22:38.152Z,93.63
2018-10-03T16:25:06.444Z,93.86
2018-10-03T16:27:34.975Z,93.02
2018-10-03T16:30:03.223Z,93.70
2018-10-03T16:32:31.625Z,97.15
2018-10-03T16:34:59.890Z,96.64
2018-10-03T16:37:28.181Z,97.61
2018-10-03T16:39:56.466Z,98.51
2018-10-03T16:42:24.767Z,98.58
2018-10-03T16:44:53.050Z,97.29
2018-10-03T16:47:21.339Z,97.66
2018-10-03T16:49:49.651Z,98.09
2018-10-03T16:52:17.930Z,98.52
2018-10-03T16:54:46.225Z,100.00
2018-10-03T16:57:14.527Z,100.00
2018-10-03T16:59:42.831Z,100.00
2018-10-03T17:02:11.123Z,100.00
2018-10-03T17:04:39.431Z,100.00
2018-10-03T17:07:07.724Z,100.00
2018-10-03T17:09:36.039Z,100.00
2018-10-03T17:12:04.339Z,100.00
2018-10-03T17:14:32.646Z,100.00
2018-10-03T17:17:00.943Z,100.00
2018-10-03T17:19:29.247Z,100.00
2018-10-03T17:21:57.547Z,100.00
2018-10-03T17:24:25.833Z,100.00
2018-10-03T17:26:54.142Z,100.00
2018-10-03T17:29:22.439Z,100.00
2018-10-03T17:31:50.745Z,100.00
2018-10-03T17:34:19.054Z,100.00
2018-10-03T17:36:47.351Z,100.00
2018-10-03T17:39:15.643Z,100.00
2018-10-03T17:41:43.955Z,100.00
2018-10-03T17:44:12.251Z,100.00
2018-10-03T17:46:40.543Z,100.00
2018-10-03T17:49:08.844Z,100.00
2018-10-03T17:51:37.138Z,100.00
2018-10-03T17:54:05.451Z,100.00
2018-10-03T17:56:33.745Z,100.00
2018-10-03T17:59:02.091Z,100.00
2018-10-03T18:01:30.347Z,100.00
2018-10-03T18:03:58.636Z,100.00
2018-10-03T18:06:26.932Z,100.00
2018-10-03T18:08:55.240Z,100.00
2018-10-03T18:11:23.536Z,100.00
2018-10-03T18:13:51.885Z,100.00
2018-10-03T18:16:20.173Z,100.00
2018-10-03T18:18:48.600Z,100.00
2018-10-03T18:21:16.938Z,100.00
2018-10-03T18:23:45.415Z,100.00
2018-10-03T18:26:13.976Z,100.00
2018-10-03T18:28:42.330Z,100.00
2018-10-03T18:31:10.740Z,100.00
2018-10-03T18:33:39.310Z,100.00
2018-10-03T18:36:08.124Z,100.00
2018-10-03T18:38:37.118Z,100.00
2018-10-03T18:41:06.077Z,100.00
2018-10-03T18:43:35.435Z,100.00
2018-10-03T18:46:04.766Z,100.00
2018-10-03T18:48:34.088Z,100.00
2018-10-03T18:51:03.441Z,100.00
2018-10-03T18:53:32.811Z,100.00
2018-10-03T18:56:02.105Z,100.00
2018-10-03T18:58:31.435Z,100.00
2018-10-03T19:01:00.848Z,100.00
2018-10-03T19:03:30.207Z,100.00
2018-10-03T19:05:59.681Z,100.00
2018-10-03T19:08:28.911Z,100.00
2018-10-03T19:10:58.369Z,100.00
2018-10-03T19:13:27.839Z,100.00
2018-10-03T19:15:57.121Z,100.00
2018-10-03T19:18:26.388Z,100.00
2018-10-03T19:20:55.845Z,100.00
2018-10-03T19:23:25.259Z,100.00
2018-10-03T19:25:54.929Z,100.00
2018-10-03T19:28:24.271Z,100.00
2018-10-03T19:30:53.812Z,100.00
2018-10-03T19:33:24.241Z,100.00
2018-10-03T19:35:53.731Z,100.00
2018-10-03T19:38:23.121Z,100.00
2018-10-03T19:40:52.659Z,100.00
2018-10-03T19:43:22.034Z,100.00
2018-10-03T19:45:51.415Z,100.00
2018-10-03T19:48:20.861Z,100.00
2018-10-03T19:50:50.281Z,100.00
2018-10-03T19:53:20.877Z,100.00
2018-10-03T19:55:50.307Z,100.00
2018-10-03T19:58:19.685Z,100.00
2018-10-03T20:00:48.947Z,100.00
2018-10-03T20:03:18.327Z,100.00
2018-10-03T20:05:47.625Z,100.00
2018-10-03T20:08:17.060Z,100.00
2018-10-03T20:10:46.616Z,100.00
2018-10-03T20:13:15.979Z,100.00
2018-10-03T20:15:45.421Z,100.00
2018-10-03T20:18:14.812Z,100.00
2018-10-03T20:20:43.892Z,100.00
2018-10-03T20:23:12.963Z,100.00
2018-10-03T20:25:42.087Z,100.00
2018-10-03T20:28:10.963Z,100.00
2018-10-03T20:30:39.819Z,100.00
2018-10-03T20:33:08.403Z,100.00
2018-10-03T20:35:37.003Z,100.00
2018-10-03T20:38:05.525Z,100.00
2018-10-03T20:40:33.828Z,100.00
2018-10-03T20:43:02.187Z,100.00
2018-10-03T20:45:30.475Z,100.00
2018-10-03T20:47:58.775Z,100.00
2018-10-03T20:50:27.083Z,100.00
2018-10-03T20:52:55.406Z,100.00
2018-10-03T20:55:23.711Z,100.00
2018-10-03T20:57:52.008Z,100.00
2018-10-03T21:00:20.339Z,100.00
2018-10-03T21:02:48.622Z,100.00
2018-10-03T21:05:16.915Z,100.00
2018-10-03T21:07:45.210Z,100.00
2018-10-03T21:10:13.566Z,100.00
2018-10-03T21:12:41.866Z,100.00
2018-10-03T21:15:10.163Z,100.00
2018-10-03T21:17:38.467Z,100.00
2018-10-03T21:20:06.762Z,100.00
2018-10-03T21:22:35.063Z,100.00
2018-10-03T21:25:03.412Z,100.00
2018-10-03T21:27:31.668Z,100.00
2018-10-03T21:29:59.975Z,100.00
2018-10-03T21:32:28.294Z,100.00
2018-10-03T21:34:56.560Z,100.00
2018-10-03T21:37:24.871Z,100.00
2018-10-03T21:39:53.173Z,100.00
2018-10-03T21:42:21.475Z,100.00
2018-10-03T21:44:49.790Z,100.00
2018-10-03T21:47:18.083Z,100.00
2018-10-03T21:49:46.391Z,100.00
2018-10-03T21:52:14.686Z,100.00
2018-10-03T21:54:42.980Z,100.00
2018-10-03T21:57:11.263Z,100.00
2018-10-03T21:59:39.568Z,100.00
2018-10-03T22:02:07.859Z,100.00
2018-10-03T22:04:36.172Z,100.00
2018-10-03T22:07:04.470Z,100.00
2018-10-03T22:09:32.755Z,100.00
2018-10-03T22:12:01.062Z,100.00
2018-10-03T22:14:29.359Z,100.00
2018-10-03T22:16:57.651Z,100.00
2018-10-03T22:19:25.942Z,100.00
2018-10-03T22:21:54.244Z,100.00
2018-10-03T22:24:22.547Z,100.00
2018-10-03T22:26:50.843Z,100.00
2018-10-03T22:29:19.215Z,100.00
2018-10-03T22:31:47.520Z,100.00
2018-10-03T22:34:15.828Z,100.00
2018-10-03T22:36:44.128Z,100.00
2018-10-03T22:39:12.439Z,100.00
2018-10-03T22:41:40.731Z,100.00
2018-10-03T22:44:09.027Z,100.00
2018-10-03T22:46:37.346Z,100.00
2018-10-03T22:49:05.639Z,100.00
2018-10-03T22:51:33.944Z,100.00
2018-10-03T22:54:02.251Z,100.00
2018-10-03T22:56:30.552Z,100.00
2018-10-03T22:58:59.026Z,100.00
2018-10-03T23:01:27.375Z,100.00
2018-10-03T23:03:55.673Z,100.00
2018-10-03T23:06:23.975Z,100.00
2018-10-03T23:08:52.267Z,100.00
2018-10-03T23:11:20.551Z,100.00
2018-10-03T23:13:48.860Z,100.00
2018-10-03T23:16:17.147Z,100.00
2018-10-03T23:18:45.463Z,100.00
2018-10-03T23:21:13.754Z,100.00
2018-10-03T23:23:42.059Z,100.00
2018-10-03T23:26:10.356Z,100.00
2018-10-03T23:28:38.638Z,100.00
2018-10-03T23:31:06.935Z,100.00
2018-10-03T23:33:35.224Z,100.00
2018-10-03T23:36:03.524Z,100.00
2018-10-03T23:38:31.829Z,100.00
2018-10-03T23:41:00.131Z,100.00
2018-10-03T23:43:28.431Z,100.00
2018-10-03T23:45:56.719Z,100.00
2018-10-03T23:48:25.007Z,100.00
2018-10-03T23:50:53.315Z,100.00
2018-10-03T23:53:21.603Z,100.00
2018-10-03T23:55:49.906Z,100.00
2018-10-03T23:58:18.185Z,100.00
